Time;durP1;ratioP1;P1;durP2;ratioP2;P2;SDS_P1;SDS_P2;PMS_P1;PMS_P2;Temp;Humidity;BMP_temperature;BMP_pressure;BME280_temperature;BME280_humidity;BME280_pressure;Samples;Min_cycle;Max_cycle;Signal;HPM_P1;HPM_P2
2021/01/04 00:00:31;;;;;;;24.52;21.08;;;6.60;47.10;;;;;;4888003;29;20201;-96
2021/01/04 00:06:18;;;;;;;22.17;19.63;;;6.60;47.90;;;;;;4904783;29;20183;-95
2021/01/04 00:09:10;;;;;;;26.33;21.58;;;6.60;47.80;;;;;;4887589;29;20238;-93
2021/01/04 00:11:41;;;;;;;27.70;21.08;;;6.60;48.20;;;;;;4885849;29;20184;-93
2021/01/04 00:14:37;;;;;;;21.90;19.50;;;6.50;47.90;;;;;;4884946;29;20463;-93
2021/01/04 00:17:20;;;;;;;23.55;19.05;;;6.60;48.20;;;;;;4885386;29;20179;-94
2021/01/04 00:20:08;;;;;;;24.00;20.23;;;6.30;47.20;;;;;;4883026;29;20230;-93
2021/01/04 00:22:42;;;;;;;24.80;20.63;;;6.50;48.00;;;;;;4885495;29;20171;-93
2021/01/04 00:25:46;;;;;;;24.80;20.30;;;6.30;48.30;;;;;;4884830;29;20167;-92
2021/01/04 00:28:17;;;;;;;29.98;23.90;;;6.60;47.90;;;;;;4886325;29;20175;-92
2021/01/04 00:31:12;;;;;;;24.92;20.88;;;6.70;48.00;;;;;;4888088;29;20661;-91
2021/01/04 00:33:37;;;;;;;24.90;21.42;;;6.50;48.60;;;;;;4891338;29;20175;-92
2021/01/04 00:36:24;;;;;;;27.43;22.47;;;6.20;48.50;;;;;;4886383;29;20592;-92
2021/01/04 00:39:40;;;;;;;30.58;21.30;;;5.70;47.90;;;;;;4899852;29;20219;-92
2021/01/04 00:42:59;;;;;;;23.30;20.63;;;6.10;49.40;;;;;;4867215;29;20177;-92
2021/01/04 00:45:44;;;;;;;31.65;24.00;;;6.10;49.60;;;;;;4871515;29;20191;-92
2021/01/04 00:48:26;;;;;;;26.08;21.52;;;6.00;49.40;;;;;;4886017;29;20171;-92
2021/01/04 00:50:56;;;;;;;27.98;22.65;;;6.40;49.70;;;;;;4901333;29;20251;-92
2021/01/04 00:57:11;;;;;;;27.30;23.13;;;6.00;50.20;;;;;;4903647;29;20177;-92
2021/01/04 00:59:58;;;;;;;26.63;22.55;;;5.80;50.40;;;;;;4892572;29;20176;-92
2021/01/04 01:05:53;;;;;;;31.50;25.40;;;6.00;50.20;;;;;;4902456;29;20178;-93
2021/01/04 01:08:21;;;;;;;29.73;23.98;;;6.00;50.10;;;;;;4900452;29;20170;-93
2021/01/04 01:20:52;;;;;;;27.95;23.95;;;5.80;50.50;;;;;;4898988;29;20238;-96
2021/01/04 01:23:22;;;;;;;26.45;21.70;;;5.80;50.60;;;;;;4887405;29;20278;-93
2021/01/04 01:29:44;;;;;;;22.95;20.17;;;6.20;50.60;;;;;;4901258;29;20168;-93
2021/01/04 01:32:16;;;;;;;31.90;23.33;;;6.00;49.90;;;;;;4900417;29;20171;-93
2021/01/04 01:52:02;;;;;;;35.67;23.88;;;5.90;48.10;;;;;;4908719;29;20259;-96
2021/01/04 01:57:56;;;;;;;29.33;24.27;;;6.20;48.50;;;;;;4909438;29;20215;-96
2021/01/04 02:10:18;;;;;;;30.85;24.17;;;6.20;49.00;;;;;;4907515;29;20222;-96
2021/01/04 02:16:12;;;;;;;28.05;21.77;;;6.10;48.80;;;;;;4907757;29;20650;-96
2021/01/04 02:26:08;;;;;;;28.00;21.40;;;6.20;48.80;;;;;;4911727;29;20188;-96
2021/01/04 02:32:00;;;;;;;28.50;21.80;;;6.10;47.90;;;;;;4912984;29;20179;-96
2021/01/04 02:37:48;;;;;;;26.98;21.67;;;6.50;48.80;;;;;;4914562;29;20155;-95
2021/01/04 02:43:36;;;;;;;29.88;23.58;;;6.30;48.30;;;;;;4911470;29;20183;-96
2021/01/04 02:53:56;;;;;;;28.48;21.92;;;6.20;48.60;;;;;;4853962;29;20210;-96
2021/01/04 02:59:50;;;;;;;27.85;23.25;;;5.90;49.30;;;;;;4855227;29;20217;-95
2021/01/04 03:05:38;;;;;;;30.10;24.35;;;6.00;49.30;;;;;;4854213;29;20217;-96
2021/01/04 03:11:28;;;;;;;30.17;23.42;;;6.00;49.50;;;;;;4854856;29;20245;-96
2021/01/04 03:17:35;;;;;;;32.90;25.70;;;5.90;49.70;;;;;;4855248;29;20163;-96
2021/01/04 03:24:29;;;;;;;31.95;23.30;;;6.00;49.40;;;;;;4841056;29;20233;-92
2021/01/04 03:27:10;;;;;;;30.83;22.65;;;5.90;49.10;;;;;;4848747;29;20190;-93
2021/01/04 03:29:35;;;;;;;32.25;23.58;;;6.10;49.90;;;;;;4886964;29;20671;-93
2021/01/04 03:32:01;;;;;;;28.17;23.67;;;5.60;49.20;;;;;;4886570;29;20171;-93
2021/01/04 03:34:50;;;;;;;26.17;22.50;;;6.20;49.30;;;;;;4886372;29;20530;-94
2021/01/04 03:37:17;;;;;;;25.80;20.88;;;6.00;49.40;;;;;;4887369;29;20175;-94
2021/01/04 03:39:43;;;;;;;29.27;23.15;;;6.00;49.10;;;;;;4886513;29;20231;-92
2021/01/04 03:42:28;;;;;;;29.80;23.52;;;6.20;49.10;;;;;;4886536;29;20175;-93
2021/01/04 03:44:53;;;;;;;27.27;22.77;;;6.10;49.10;;;;;;4887013;29;20168;-92
2021/01/04 03:47:19;;;;;;;28.37;23.80;;;5.60;48.70;;;;;;4887304;29;20164;-93
2021/01/04 03:49:57;;;;;;;26.30;22.33;;;6.30;48.70;;;;;;4886922;29;20203;-93
2021/01/04 03:52:23;;;;;;;26.88;22.63;;;6.20;49.10;;;;;;4886780;29;20171;-93
2021/01/04 03:54:48;;;;;;;33.40;25.43;;;6.00;49.20;;;;;;4886830;29;20534;-93
2021/01/04 03:57:20;;;;;;;31.30;23.03;;;6.20;48.90;;;;;;4886555;29;20164;-93
2021/01/04 03:59:46;;;;;;;31.00;24.10;;;5.70;48.70;;;;;;4886931;29;20575;-93
2021/01/04 04:02:11;;;;;;;28.13;21.87;;;6.30;49.60;;;;;;4886962;29;20227;-93
2021/01/04 04:05:00;;;;;;;28.13;23.17;;;6.00;48.50;;;;;;4887195;29;20260;-93
2021/01/04 04:07:26;;;;;;;27.65;23.60;;;6.20;49.10;;;;;;4885802;29;20175;-93
2021/01/04 04:09:51;;;;;;;30.93;23.43;;;6.50;48.70;;;;;;4886945;29;20195;-93
2021/01/04 04:12:26;;;;;;;28.30;21.87;;;6.30;48.40;;;;;;4886694;29;20448;-92
2021/01/04 04:14:52;;;;;;;29.05;23.05;;;6.90;48.20;;;;;;4886932;29;20164;-93
2021/01/04 04:17:18;;;;;;;26.10;22.53;;;5.90;47.70;;;;;;4886829;29;20575;-91
2021/01/04 04:19:51;;;;;;;27.58;22.67;;;6.30;47.50;;;;;;4885399;29;20172;-90
2021/01/04 04:22:24;;;;;;;33.28;24.52;;;6.20;47.70;;;;;;4885260;29;20219;-90
2021/01/04 04:24:51;;;;;;;27.35;22.52;;;6.90;48.20;;;;;;4901088;29;20176;-96
2021/01/04 04:27:18;;;;;;;28.45;21.58;;;6.60;48.10;;;;;;4908332;29;20176;-96
2021/01/04 04:33:05;;;;;;;31.83;24.17;;;6.40;48.20;;;;;;4909771;29;20216;-96
2021/01/04 04:38:54;;;;;;;25.73;20.73;;;6.40;48.60;;;;;;4908798;29;20163;-96
2021/01/04 05:10:52;;;;;;;29.23;22.70;;;6.30;48.50;;;;;;4909391;29;20224;-96
2021/01/04 05:16:58;;;;;;;29.65;24.33;;;6.20;49.10;;;;;;4907467;29;20163;-96
2021/01/04 06:13:17;;;;;;;27.27;22.90;;;5.80;50.70;;;;;;4922363;29;20230;-91
2021/01/04 06:15:42;;;;;;;29.00;22.83;;;6.00;50.70;;;;;;4906525;29;20183;-92
2021/01/04 06:18:27;;;;;;;29.73;23.20;;;5.50;49.30;;;;;;4906607;29;20270;-91
2021/01/04 06:20:53;;;;;;;27.35;21.50;;;6.00;49.70;;;;;;4906662;29;20179;-92
2021/01/04 06:23:28;;;;;;;27.57;23.20;;;6.10;49.70;;;;;;4906582;29;20185;-91
2021/01/04 06:25:59;;;;;;;30.13;22.60;;;6.00;49.70;;;;;;4906555;29;20655;-91
2021/01/04 06:28:27;;;;;;;30.75;23.58;;;5.60;48.70;;;;;;4906109;29;20182;-91
2021/01/04 06:31:07;;;;;;;30.88;23.13;;;5.70;49.10;;;;;;4906148;29;20231;-91
2021/01/04 06:33:33;;;;;;;33.70;27.05;;;6.00;48.90;;;;;;4905721;29;20182;-93
2021/01/04 06:39:30;;;;;;;30.92;24.27;;;6.00;49.70;;;;;;4923144;29;20158;-92
2021/01/04 06:42:18;;;;;;;28.52;23.35;;;6.00;49.90;;;;;;4906073;29;20174;-93
2021/01/04 06:45:34;;;;;;;31.52;24.45;;;5.40;49.50;;;;;;4906004;29;20210;-93
2021/01/04 06:48:18;;;;;;;34.88;25.15;;;5.90;50.00;;;;;;4906089;29;20203;-92
2021/01/04 06:51:18;;;;;;;34.55;25.27;;;6.00;49.30;;;;;;4906477;29;20203;-93
2021/01/04 06:54:25;;;;;;;30.75;22.23;;;5.90;50.00;;;;;;4900616;29;20270;-92
2021/01/04 06:57:09;;;;;;;30.83;24.73;;;5.90;50.30;;;;;;4905223;29;20167;-90
2021/01/04 06:59:40;;;;;;;31.35;23.55;;;5.80;50.40;;;;;;4905657;29;20262;-90
2021/01/04 07:02:31;;;;;;;33.25;24.10;;;5.90;50.40;;;;;;4904954;29;20176;-90
2021/01/04 07:05:25;;;;;;;32.58;24.33;;;5.80;49.80;;;;;;4904559;29;20171;-90
2021/01/04 07:07:56;;;;;;;29.00;21.85;;;5.80;50.60;;;;;;4905016;29;20179;-91
2021/01/04 07:10:41;;;;;;;34.42;26.35;;;5.80;50.60;;;;;;4904867;29;20234;-91
2021/01/04 07:16:38;;;;;;;26.38;23.55;;;5.90;50.50;;;;;;4903245;29;20219;-91
2021/01/04 07:19:09;;;;;;;33.00;22.55;;;5.90;50.30;;;;;;4886376;29;20183;-90
2021/01/04 07:21:49;;;;;;;33.08;24.38;;;5.90;50.00;;;;;;4886860;29;20242;-91
2021/01/04 07:28:02;;;;;;;30.52;22.13;;;5.90;50.10;;;;;;4903836;29;20175;-91
2021/01/04 07:30:51;;;;;;;31.55;25.23;;;6.00;49.90;;;;;;4886233;29;20210;-91
2021/01/04 07:33:19;;;;;;;27.42;21.83;;;6.20;50.20;;;;;;4885859;29;20203;-91
2021/01/04 07:36:34;;;;;;;27.58;22.95;;;5.80;49.20;;;;;;4886542;29;20164;-90
2021/01/04 07:39:37;;;;;;;28.70;22.33;;;6.00;49.90;;;;;;4881631;29;20183;-91
2021/01/04 07:42:21;;;;;;;24.67;19.30;;;6.00;49.90;;;;;;4885518;29;20203;-89
2021/01/04 07:44:55;;;;;;;29.83;23.25;;;6.00;50.30;;;;;;4902293;29;20172;-89
2021/01/04 07:48:17;;;;;;;28.75;23.48;;;5.80;50.60;;;;;;4885505;29;20588;-90
2021/01/04 07:51:10;;;;;;;28.85;22.20;;;5.70;50.80;;;;;;4885506;29;20200;-90
2021/01/04 07:53:42;;;;;;;30.42;23.33;;;5.70;50.90;;;;;;4885534;29;20627;-90
2021/01/04 07:56:45;;;;;;;33.45;25.25;;;5.60;50.50;;;;;;4886447;29;20183;-89
2021/01/04 07:59:47;;;;;;;27.63;22.60;;;5.60;50.90;;;;;;4885851;29;20175;-89
2021/01/04 08:02:50;;;;;;;31.10;25.05;;;5.80;51.20;;;;;;4885510;29;20627;-89
2021/01/04 08:09:08;;;;;;;29.63;23.10;;;5.70;51.10;;;;;;4902862;29;20208;-89
2021/01/04 08:12:12;;;;;;;29.80;24.17;;;5.70;50.90;;;;;;4889569;29;20235;-90
2021/01/04 08:14:50;;;;;;;29.17;22.60;;;5.70;50.90;;;;;;4885319;29;20263;-90
2021/01/04 08:17:47;;;;;;;33.35;22.80;;;5.70;50.80;;;;;;4899402;29;20176;-89
2021/01/04 08:20:13;;;;;;;30.58;24.33;;;5.50;50.40;;;;;;4900957;29;20204;-92
2021/01/04 08:22:42;;;;;;;30.63;24.05;;;5.40;49.70;;;;;;4900476;29;20187;-90
2021/01/04 08:28:39;;;;;;;28.23;23.38;;;5.80;50.80;;;;;;4901724;29;20175;-90
2021/01/04 08:34:40;;;;;;;30.30;23.10;;;5.90;49.60;;;;;;4844631;29;20181;-90
2021/01/04 08:37:38;;;;;;;30.25;22.95;;;6.00;49.70;;;;;;4900862;29;20258;-90
2021/01/04 08:40:27;;;;;;;25.63;20.23;;;5.90;50.50;;;;;;4889344;29;20181;-91
2021/01/04 08:43:05;;;;;;;30.00;23.60;;;5.80;50.40;;;;;;4881790;29;20172;-90
2021/01/04 08:46:16;;;;;;;27.52;23.83;;;5.70;49.50;;;;;;4881540;29;20824;-91
2021/01/04 08:48:41;;;;;;;28.58;23.17;;;6.20;50.60;;;;;;4881331;29;20192;-90
2021/01/04 08:51:36;;;;;;;32.20;23.60;;;5.90;50.00;;;;;;4881439;29;20204;-90
2021/01/04 08:54:20;;;;;;;28.30;23.70;;;6.00;50.50;;;;;;4881244;29;20180;-91
2021/01/04 08:56:50;;;;;;;35.58;26.55;;;5.90;50.70;;;;;;4881507;29;20267;-92
2021/01/04 08:59:19;;;;;;;29.58;22.65;;;6.00;49.90;;;;;;4881543;29;20177;-91
2021/01/04 09:01:51;;;;;;;29.65;25.52;;;6.40;50.40;;;;;;4900714;29;20428;-92
2021/01/04 09:05:13;;;;;;;27.20;22.88;;;6.10;49.50;;;;;;4901495;29;20179;-93
2021/01/04 09:07:54;;;;;;;31.92;24.50;;;6.30;50.40;;;;;;4896601;29;20231;-93
2021/01/04 09:10:41;;;;;;;27.33;22.50;;;6.10;48.80;;;;;;4891087;29;20448;-93
2021/01/04 09:13:28;;;;;;;29.48;25.33;;;6.20;49.90;;;;;;4895934;29;20434;-92
2021/01/04 09:15:55;;;;;;;31.80;25.17;;;6.20;50.00;;;;;;4922495;29;20189;-92
2021/01/04 09:18:32;;;;;;;31.08;25.25;;;6.40;49.50;;;;;;4905935;29;20258;-91
2021/01/04 09:21:19;;;;;;;30.92;24.15;;;6.40;49.60;;;;;;4906571;29;20198;-91
2021/01/04 09:23:45;;;;;;;31.83;23.35;;;6.40;48.80;;;;;;4907161;29;20185;-89
2021/01/04 09:26:34;;;;;;;29.17;24.77;;;6.20;48.20;;;;;;4906041;29;20822;-89
2021/01/04 09:29:12;;;;;;;31.05;26.38;;;6.50;48.90;;;;;;4910066;29;20579;-89
2021/01/04 09:32:13;;;;;;;30.33;26.88;;;6.70;48.30;;;;;;4908185;29;20435;-89
2021/01/04 09:34:39;;;;;;;33.28;26.67;;;6.70;48.60;;;;;;4924146;29;20253;-88
2021/01/04 09:37:22;;;;;;;28.00;23.73;;;6.20;47.20;;;;;;4909017;29;20218;-89
2021/01/04 09:39:50;;;;;;;29.20;23.00;;;6.90;47.50;;;;;;4908123;29;20198;-91
2021/01/04 09:42:26;;;;;;;28.20;25.23;;;6.80;47.50;;;;;;4906988;29;20434;-90
2021/01/04 09:44:53;;;;;;;27.75;24.75;;;6.70;47.70;;;;;;4907409;29;20167;-90
2021/01/04 09:47:58;;;;;;;29.73;22.83;;;6.70;48.00;;;;;;4907253;29;20219;-90
2021/01/04 09:50:37;;;;;;;29.30;21.17;;;6.70;48.20;;;;;;4907194;29;20289;-89
2021/01/04 09:53:26;;;;;;;28.17;23.33;;;6.80;48.40;;;;;;4908255;29;20178;-89
2021/01/04 09:55:58;;;;;;;26.50;21.85;;;6.50;48.60;;;;;;4907551;29;20175;-89
2021/01/04 09:58:32;;;;;;;28.60;22.30;;;6.60;48.10;;;;;;4908010;29;20197;-88
2021/01/04 10:01:14;;;;;;;26.15;21.45;;;6.50;47.70;;;;;;4907078;29;20170;-89
2021/01/04 10:04:00;;;;;;;29.60;23.58;;;6.50;48.70;;;;;;4902704;29;20213;-88
2021/01/04 10:06:30;;;;;;;26.92;23.65;;;6.30;48.30;;;;;;4907001;29;20251;-91
2021/01/04 10:09:13;;;;;;;34.08;28.08;;;5.90;47.80;;;;;;4907088;29;20638;-90
2021/01/04 10:11:40;;;;;;;34.83;27.33;;;5.90;48.60;;;;;;4906750;29;20233;-88
2021/01/04 10:14:10;;;;;;;33.85;28.70;;;6.20;50.00;;;;;;4906760;29;20652;-90
2021/01/04 10:16:40;;;;;;;32.28;26.83;;;6.20;49.30;;;;;;4906976;29;20173;-89
2021/01/04 10:19:13;;;;;;;28.45;23.85;;;6.10;49.90;;;;;;4905454;29;20650;-88
2021/01/04 10:22:16;;;;;;;28.88;24.80;;;6.10;49.40;;;;;;4905277;29;20458;-88
2021/01/04 10:25:14;;;;;;;31.20;27.05;;;6.30;49.10;;;;;;4875452;29;20461;-88
2021/01/04 10:27:41;;;;;;;28.08;22.92;;;6.30;48.90;;;;;;4901420;29;20194;-89
2021/01/04 10:30:12;;;;;;;28.45;22.58;;;6.40;48.20;;;;;;4906352;29;20778;-89
2021/01/04 10:32:40;;;;;;;28.38;22.17;;;6.70;48.00;;;;;;4908436;29;20570;-88
2021/01/04 10:35:22;;;;;;;24.88;20.90;;;6.40;48.10;;;;;;4906509;29;20423;-88
2021/01/04 10:38:15;;;;;;;27.25;22.65;;;6.40;48.10;;;;;;4905399;29;20647;-88
2021/01/04 10:40:47;;;;;;;22.10;19.45;;;6.50;47.80;;;;;;4897107;29;20187;-88
2021/01/04 10:43:18;;;;;;;28.60;22.10;;;6.40;47.20;;;;;;4886845;29;20184;-88
2021/01/04 10:45:51;;;;;;;24.17;19.30;;;6.50;47.60;;;;;;4902378;29;20741;-89
2021/01/04 10:48:21;;;;;;;23.15;18.85;;;6.40;47.00;;;;;;4904316;29;20639;-88
2021/01/04 10:50:52;;;;;;;26.85;19.52;;;6.60;47.20;;;;;;4903335;29;20588;-88
2021/01/04 10:53:42;;;;;;;24.90;21.25;;;6.00;47.20;;;;;;4901650;29;20427;-89
2021/01/04 10:56:16;;;;;;;24.15;19.17;;;6.40;47.20;;;;;;4902714;29;20234;-89
2021/01/04 10:59:09;;;;;;;24.50;18.77;;;6.50;47.50;;;;;;4917721;29;20169;-89
2021/01/04 11:01:40;;;;;;;25.23;19.52;;;6.30;47.40;;;;;;4917382;29;20178;-89
2021/01/04 11:04:13;;;;;;;24.13;19.73;;;6.40;47.80;;;;;;4903603;29;20423;-89
2021/01/04 11:06:42;;;;;;;25.92;20.30;;;6.60;46.80;;;;;;4903297;29;20171;-87
2021/01/04 11:09:20;;;;;;;25.83;20.20;;;6.60;46.90;;;;;;4903458;29;20175;-89
2021/01/04 11:12:02;;;;;;;24.10;20.38;;;6.60;46.10;;;;;;4893530;29;20314;-87
2021/01/04 11:14:29;;;;;;;24.73;20.05;;;6.60;45.60;;;;;;4905734;29;20248;-87
2021/01/04 11:17:12;;;;;;;23.23;19.83;;;6.70;45.30;;;;;;4882609;29;20200;-89
2021/01/04 11:19:38;;;;;;;33.22;27.35;;;6.60;46.00;;;;;;4882991;29;20176;-89
2021/01/04 11:22:17;;;;;;;24.93;21.13;;;6.70;45.30;;;;;;4882556;29;20203;-88
2021/01/04 11:24:43;;;;;;;23.35;20.85;;;6.80;45.30;;;;;;4882789;29;20662;-88
2021/01/04 11:27:16;;;;;;;22.03;19.70;;;6.50;44.50;;;;;;4882452;29;20184;-87
2021/01/04 11:29:43;;;;;;;21.98;17.63;;;6.50;44.70;;;;;;4882973;29;20180;-88
2021/01/04 11:32:10;;;;;;;20.90;18.52;;;6.40;45.00;;;;;;4882586;29;20303;-88
2021/01/04 11:35:00;;;;;;;18.42;15.80;;;6.40;44.40;;;;;;4882975;29;20173;-88
2021/01/04 11:37:26;;;;;;;19.55;16.40;;;6.60;45.00;;;;;;4884199;29;20179;-91
2021/01/04 11:39:53;;;;;;;20.13;17.35;;;6.80;43.80;;;;;;4885051;29;20202;-91
2021/01/04 11:42:19;;;;;;;19.13;16.42;;;6.60;42.30;;;;;;4885928;29;20196;-92
2021/01/04 11:45:16;;;;;;;24.67;22.13;;;6.40;42.70;;;;;;4895270;29;20187;-90
2021/01/04 11:47:42;;;;;;;17.00;14.52;;;6.60;43.80;;;;;;4903815;29;20698;-90
2021/01/04 11:50:08;;;;;;;17.57;15.67;;;6.60;43.00;;;;;;4903244;29;20245;-90
2021/01/04 11:52:35;;;;;;;21.73;15.75;;;6.80;42.60;;;;;;4905997;29;20171;-91
2021/01/04 11:55:11;;;;;;;17.45;15.48;;;5.90;41.90;;;;;;4922175;29;20190;-90
2021/01/04 11:57:37;;;;;;;15.77;14.10;;;6.50;43.00;;;;;;4923444;29;20178;-92
2021/01/04 12:00:11;;;;;;;18.70;14.95;;;6.70;42.50;;;;;;4888051;29;20218;-91
2021/01/04 12:02:37;;;;;;;15.45;13.77;;;6.30;42.60;;;;;;4906186;29;20599;-91
2021/01/04 12:05:06;;;;;;;15.73;14.23;;;6.40;41.00;;;;;;4903022;29;20172;-91
2021/01/04 12:07:31;;;;;;;15.20;13.60;;;6.30;41.60;;;;;;4898583;29;20456;-92
2021/01/04 12:09:58;;;;;;;17.30;15.50;;;5.70;41.80;;;;;;4889822;29;20574;-91
2021/01/04 12:12:44;;;;;;;16.30;14.43;;;6.30;42.20;;;;;;4901304;29;20220;-91
2021/01/04 12:15:11;;;;;;;16.58;14.88;;;6.10;42.30;;;;;;4903760;29;20420;-93
2021/01/04 12:17:39;;;;;;;17.48;15.38;;;6.00;42.20;;;;;;4893382;29;20180;-88
2021/01/04 12:20:06;;;;;;;17.80;16.00;;;6.40;42.50;;;;;;4881842;29;20446;-90
2021/01/04 12:22:39;;;;;;;16.83;14.55;;;6.00;43.00;;;;;;4892014;29;20463;-91
2021/01/04 12:25:06;;;;;;;16.42;14.63;;;6.10;42.90;;;;;;4902400;29;20215;-91
2021/01/04 12:27:44;;;;;;;17.52;14.55;;;6.00;43.20;;;;;;4902499;29;20424;-91
2021/01/04 12:30:10;;;;;;;19.92;17.85;;;6.10;42.30;;;;;;4903359;29;20202;-90
2021/01/04 12:32:42;;;;;;;19.75;16.10;;;5.90;42.60;;;;;;4900774;29;20171;-91
2021/01/04 12:35:12;;;;;;;21.70;16.92;;;5.50;42.20;;;;;;4903135;29;20164;-91
2021/01/04 12:37:38;;;;;;;29.23;20.92;;;6.10;41.90;;;;;;4901375;29;20695;-90
2021/01/04 12:40:08;;;;;;;21.60;18.63;;;5.70;41.60;;;;;;4903004;29;20196;-89
2021/01/04 12:42:35;;;;;;;27.42;21.25;;;5.80;42.50;;;;;;4901528;29;20176;-90
2021/01/04 12:45:00;;;;;;;25.70;19.13;;;5.50;42.30;;;;;;4903122;29;20168;-92
2021/01/04 12:47:26;;;;;;;26.23;20.93;;;5.80;42.40;;;;;;4902559;29;20172;-92
2021/01/04 12:49:52;;;;;;;23.67;18.93;;;5.60;42.70;;;;;;4903180;29;20282;-88
2021/01/04 12:52:34;;;;;;;24.10;19.33;;;5.90;42.00;;;;;;4901683;29;20627;-91
2021/01/04 12:55:00;;;;;;;22.65;18.20;;;5.30;41.80;;;;;;4900037;29;20431;-92
2021/01/04 12:57:34;;;;;;;23.23;19.03;;;5.50;42.60;;;;;;4901234;29;20259;-91
2021/01/04 13:00:00;;;;;;;19.67;17.58;;;5.80;41.80;;;;;;4899679;29;20509;-90
2021/01/04 13:02:27;;;;;;;21.67;17.33;;;6.20;40.90;;;;;;4899107;29;20199;-89
2021/01/04 13:04:52;;;;;;;18.40;14.90;;;6.20;40.20;;;;;;4899774;29;20487;-90
2021/01/04 13:07:50;;;;;;;22.40;17.83;;;5.40;40.60;;;;;;4900346;29;20642;-90
2021/01/04 13:10:16;;;;;;;22.25;18.50;;;6.20;42.20;;;;;;4899257;29;20199;-91
2021/01/04 13:12:42;;;;;;;19.57;17.43;;;5.80;41.80;;;;;;4899124;29;20250;-91
2021/01/04 13:15:16;;;;;;;20.73;16.17;;;5.90;41.50;;;;;;4901244;29;20168;-91
2021/01/04 13:17:44;;;;;;;23.95;19.30;;;5.90;41.60;;;;;;4899440;29;20693;-91
2021/01/04 13:20:37;;;;;;;21.52;17.65;;;5.90;41.30;;;;;;4898773;29;20767;-90
2021/01/04 13:23:02;;;;;;;22.80;17.90;;;5.80;41.90;;;;;;4899069;29;20179;-91
2021/01/04 13:25:35;;;;;;;20.40;17.60;;;5.70;42.00;;;;;;4899686;29;20168;-91
2021/01/04 13:28:03;;;;;;;20.17;15.30;;;5.90;41.90;;;;;;4900150;29;20172;-91
2021/01/04 13:30:51;;;;;;;18.42;15.45;;;5.30;41.80;;;;;;4891338;29;20228;-91
2021/01/04 13:33:16;;;;;;;23.63;17.20;;;5.70;43.10;;;;;;4896003;29;20171;-92
2021/01/04 13:35:53;;;;;;;20.70;15.80;;;5.90;42.20;;;;;;4881729;29;20538;-92
2021/01/04 13:38:18;;;;;;;26.13;19.73;;;5.80;42.10;;;;;;4894130;29;20167;-92
2021/01/04 13:40:47;;;;;;;22.87;18.23;;;5.60;42.40;;;;;;4901433;29;20178;-92
2021/01/04 13:43:13;;;;;;;26.65;19.70;;;5.60;42.30;;;;;;4900363;29;20259;-90
2021/01/04 13:45:52;;;;;;;25.03;19.23;;;5.90;43.40;;;;;;4901555;29;20201;-90
2021/01/04 13:48:18;;;;;;;26.70;18.70;;;5.10;42.70;;;;;;4887036;29;20215;-91
2021/01/04 13:50:52;;;;;;;39.30;26.33;;;5.20;42.80;;;;;;4895318;29;20196;-94
2021/01/04 13:53:17;;;;;;;30.33;22.80;;;5.70;43.40;;;;;;4881569;29;20176;-92
2021/01/04 13:55:49;;;;;;;26.63;20.93;;;4.90;43.20;;;;;;4881486;29;20184;-92
2021/01/04 13:58:15;;;;;;;23.60;18.23;;;5.60;43.50;;;;;;4900302;29;20180;-94
2021/01/04 14:01:02;;;;;;;22.20;18.20;;;5.50;43.90;;;;;;4900241;29;20642;-89
2021/01/04 14:03:27;;;;;;;29.55;20.80;;;5.60;44.00;;;;;;4900327;29;20168;-91
2021/01/04 14:06:11;;;;;;;32.93;25.00;;;5.60;42.90;;;;;;4899708;29;20263;-92
2021/01/04 14:08:37;;;;;;;32.28;24.55;;;5.30;42.50;;;;;;4900268;29;20694;-92
2021/01/04 14:11:22;;;;;;;31.20;22.40;;;5.10;43.00;;;;;;4899751;29;20223;-89
2021/01/04 14:13:48;;;;;;;31.65;20.85;;;5.60;43.80;;;;;;4914839;29;20234;-90
2021/01/04 14:17:09;;;;;;;26.33;19.70;;;5.00;43.10;;;;;;4901688;29;20767;-90
2021/01/04 14:19:35;;;;;;;26.63;20.27;;;5.40;43.90;;;;;;4903165;29;20507;-90
2021/01/04 14:22:01;;;;;;;24.83;20.35;;;5.80;43.10;;;;;;4902845;29;20191;-91
2021/01/04 14:24:28;;;;;;;21.70;18.27;;;5.40;42.80;;;;;;4902333;29;20195;-88
2021/01/04 14:27:27;;;;;;;25.52;19.50;;;5.50;43.10;;;;;;4902304;29;20405;-91
2021/01/04 14:29:52;;;;;;;22.45;18.33;;;5.50;43.50;;;;;;4901322;29;20635;-89
2021/01/04 14:32:20;;;;;;;28.23;18.77;;;5.50;43.50;;;;;;4902515;29;20268;-90
2021/01/04 14:34:46;;;;;;;21.75;18.08;;;5.80;43.50;;;;;;4895475;29;20172;-90
2021/01/04 14:37:12;;;;;;;19.37;16.80;;;5.20;43.10;;;;;;4893461;29;20172;-91
2021/01/04 14:39:38;;;;;;;20.07;15.50;;;5.30;44.10;;;;;;4896445;29;20179;-90
2021/01/04 14:42:06;;;;;;;22.37;17.93;;;4.90;43.00;;;;;;4894422;29;20628;-92
2021/01/04 14:44:34;;;;;;;25.20;16.33;;;5.30;43.70;;;;;;4897465;29;20172;-91
2021/01/04 14:47:03;;;;;;;21.15;16.90;;;5.10;44.60;;;;;;4890344;29;20528;-89
2021/01/04 14:49:29;;;;;;;22.85;17.20;;;5.10;44.00;;;;;;4896429;29;20184;-89
2021/01/04 14:51:55;;;;;;;23.25;17.95;;;4.80;44.00;;;;;;4896415;29;20798;-91
2021/01/04 14:54:29;;;;;;;23.00;17.30;;;4.90;44.10;;;;;;4899523;29;20200;-89
2021/01/04 14:56:56;;;;;;;26.98;17.70;;;5.30;44.50;;;;;;4890371;29;20629;-90
2021/01/04 14:59:26;;;;;;;25.08;18.10;;;5.70;44.80;;;;;;4891151;29;20436;-91
2021/01/04 15:01:52;;;;;;;23.35;16.85;;;5.50;43.90;;;;;;4891209;29;20174;-92
2021/01/04 15:04:21;;;;;;;25.58;18.63;;;5.10;44.10;;;;;;4884323;29;20215;-91
2021/01/04 15:06:50;;;;;;;25.60;17.55;;;5.00;44.30;;;;;;4883151;29;20187;-91
2021/01/04 15:09:53;;;;;;;24.48;17.52;;;5.40;43.30;;;;;;4883246;29;20644;-90
2021/01/04 15:12:22;;;;;;;23.75;17.48;;;5.20;44.30;;;;;;4894511;29;20741;-90
2021/01/04 15:14:48;;;;;;;24.38;17.50;;;5.10;44.00;;;;;;4901220;29;20188;-90
2021/01/04 15:17:49;;;;;;;23.03;17.83;;;5.10;44.60;;;;;;4902117;29;20167;-90
2021/01/04 15:20:15;;;;;;;21.63;17.13;;;5.10;44.60;;;;;;4901111;29;20412;-90
2021/01/04 15:22:53;;;;;;;28.83;19.63;;;5.10;44.30;;;;;;4902522;29;20234;-90
2021/01/04 15:25:18;;;;;;;26.90;17.48;;;5.10;44.70;;;;;;4885410;29;20456;-94
2021/01/04 15:27:44;;;;;;;24.67;17.77;;;5.10;44.50;;;;;;4889371;29;20183;-93
2021/01/04 15:33:32;;;;;;;27.10;16.90;;;4.90;46.00;;;;;;4887283;29;20406;-92
2021/01/04 15:39:21;;;;;;;28.42;18.70;;;5.00;45.70;;;;;;4885822;29;20159;-93
2021/01/04 15:42:24;;;;;;;25.35;17.45;;;5.10;45.00;;;;;;4884160;29;20176;-93
2021/01/04 15:44:50;;;;;;;25.67;18.17;;;5.30;44.40;;;;;;4885174;29;20181;-94
2021/01/04 15:47:15;;;;;;;25.80;17.90;;;5.20;45.00;;;;;;4883690;29;20172;-93
2021/01/04 15:53:03;;;;;;;24.75;17.85;;;5.10;45.30;;;;;;4887878;29;20175;-95
2021/01/04 15:58:51;;;;;;;28.75;19.80;;;5.00;45.00;;;;;;4908246;29;20583;-93
2021/01/04 16:01:31;;;;;;;30.00;20.10;;;5.40;45.00;;;;;;4904267;29;20180;-93
2021/01/04 16:03:57;;;;;;;30.35;19.55;;;5.20;44.90;;;;;;4904047;29;20256;-93
2021/01/04 16:09:48;;;;;;;29.35;20.42;;;5.50;45.10;;;;;;4911971;29;20399;-93
2021/01/04 16:12:14;;;;;;;26.50;19.35;;;5.30;45.30;;;;;;4905932;29;20448;-83
2021/01/04 16:14:40;;;;;;;30.27;22.27;;;5.20;45.20;;;;;;4912155;29;20401;-95
2021/01/04 16:17:06;;;;;;;26.80;19.53;;;5.80;45.20;;;;;;4909346;29;20420;-94
2021/01/04 16:19:34;;;;;;;31.58;20.90;;;5.60;45.60;;;;;;4906887;29;20194;-95
2021/01/04 16:22:05;;;;;;;30.38;22.20;;;5.50;45.20;;;;;;4904661;29;20191;-93
2021/01/04 16:24:42;;;;;;;28.35;22.15;;;5.50;44.70;;;;;;4909889;29;20428;-92
2021/01/04 16:27:07;;;;;;;30.45;24.02;;;5.80;44.70;;;;;;4908649;29;20436;-94
2021/01/04 16:29:54;;;;;;;28.77;23.08;;;5.90;45.00;;;;;;4905671;29;20420;-94
2021/01/04 16:32:20;;;;;;;29.67;23.45;;;5.30;44.70;;;;;;4904208;29;20460;-94
2021/01/04 16:34:48;;;;;;;33.77;23.27;;;5.80;44.80;;;;;;4906916;29;20176;-95
2021/01/04 16:37:19;;;;;;;27.67;22.92;;;5.60;44.60;;;;;;4906883;29;20435;-95
2021/01/04 16:39:45;;;;;;;31.65;21.60;;;5.70;44.10;;;;;;4907306;29;20254;-92
2021/01/04 16:42:53;;;;;;;28.45;21.40;;;5.50;44.50;;;;;;4905798;29;20452;-93
2021/01/04 16:45:19;;;;;;;29.10;21.25;;;5.50;45.20;;;;;;4904530;29;20792;-95
2021/01/04 16:48:22;;;;;;;29.13;22.20;;;5.90;45.70;;;;;;4907265;29;20455;-94
2021/01/04 16:50:49;;;;;;;30.33;21.48;;;5.60;45.80;;;;;;4908624;29;20207;-95
2021/01/04 16:53:22;;;;;;;33.58;23.13;;;5.40;45.30;;;;;;4912397;29;20176;-96
2021/01/04 16:56:06;;;;;;;29.08;19.65;;;5.80;45.60;;;;;;4887163;29;20192;-95
2021/01/04 16:58:34;;;;;;;30.85;21.90;;;5.60;45.10;;;;;;4878299;29;20227;-81
2021/01/04 17:01:01;;;;;;;31.70;23.20;;;5.40;45.40;;;;;;4903078;29;20536;-95
2021/01/04 17:03:27;;;;;;;30.38;21.77;;;5.30;45.40;;;;;;4906747;29;20182;-93
2021/01/04 17:05:53;;;;;;;29.08;19.58;;;4.80;45.50;;;;;;4900301;29;20541;-80
2021/01/04 17:08:24;;;;;;;28.73;20.93;;;5.40;46.00;;;;;;4904948;29;20183;-94
2021/01/04 17:10:52;;;;;;;33.92;20.08;;;4.80;45.50;;;;;;4903773;29;20519;-94